Time;durP1;ratioP1;P1;durP2;ratioP2;P2;SDS_P1;SDS_P2;PMS_P1;PMS_P2;Temp;Humidity;BMP_temperature;BMP_pressure;BME280_temperature;BME280_humidity;BME280_pressure;Samples;Min_cycle;Max_cycle;Signal;HPM_P1;HPM_P2
2022/04/03 00:01:23;;;;;;;111.20;100.00;;;3.70;55.30;;;;;;5038018;28;20024;-75
2022/04/03 00:03:51;;;;;;;110.85;99.97;;;3.70;55.50;;;;;;5037432;28;20463;-75
2022/04/03 00:06:18;;;;;;;109.25;98.15;;;3.60;55.70;;;;;;5037606;28;20054;-74
2022/04/03 00:08:45;;;;;;;110.00;99.30;;;3.60;56.00;;;;;;5037331;28;20056;-74
2022/04/03 00:11:12;;;;;;;109.63;98.85;;;3.50;55.90;;;;;;5037307;28;20052;-75
2022/04/03 00:13:39;;;;;;;110.30;99.40;;;3.50;56.20;;;;;;5055297;28;20132;-75
2022/04/03 00:16:07;;;;;;;110.28;99.38;;;3.40;56.20;;;;;;5037072;28;20084;-75
2022/04/03 00:18:35;;;;;;;110.88;99.85;;;3.30;56.40;;;;;;5037129;28;20061;-74
2022/04/03 00:21:03;;;;;;;;;;;3.20;56.70;;;;;;5055163;28;20049;-75
2022/04/03 00:23:30;;;;;;;110.40;99.40;;;3.20;56.70;;;;;;5037200;28;19929;-75
2022/04/03 00:25:56;;;;;;;108.70;97.72;;;3.20;56.70;;;;;;5037423;28;20064;-75
2022/04/03 00:28:26;;;;;;;109.18;98.50;;;3.10;57.00;;;;;;5054372;28;20053;-75
2022/04/03 00:30:53;;;;;;;109.43;98.43;;;3.10;57.10;;;;;;5054888;28;20551;-75
2022/04/03 00:33:20;;;;;;;110.18;99.20;;;3.00;57.20;;;;;;5054786;28;20080;-74
2022/04/03 00:35:47;;;;;;;109.43;98.53;;;3.00;57.40;;;;;;5036983;28;20104;-74
2022/04/03 00:38:15;;;;;;;108.88;98.05;;;3.00;57.60;;;;;;5054305;28;20053;-75
2022/04/03 00:40:44;;;;;;;109.00;98.18;;;3.00;57.90;;;;;;5036881;28;20114;-74
2022/04/03 00:43:12;;;;;;;110.18;99.30;;;3.00;58.00;;;;;;5054691;28;20058;-75
2022/04/03 00:45:39;;;;;;;;;;;3.00;58.10;;;;;;5037252;28;20053;-74
2022/04/03 00:48:08;;;;;;;108.38;97.28;;;3.00;57.90;;;;;;5036614;28;19925;-74
2022/04/03 00:50:35;;;;;;;120.40;108.20;;;2.90;58.20;;;;;;5085780;22;20097;-75
2022/04/03 00:53:02;;;;;;;109.38;98.50;;;2.80;58.60;;;;;;4999385;28;20057;-74
2022/04/03 00:55:31;;;;;;;108.80;98.03;;;2.90;58.40;;;;;;5016663;28;20056;-74
2022/04/03 00:57:58;;;;;;;110.32;99.32;;;2.80;58.50;;;;;;5016457;28;20126;-75
2022/04/03 01:00:26;;;;;;;109.57;98.75;;;2.80;58.80;;;;;;5016740;28;20579;-75
2022/04/03 01:02:53;;;;;;;109.45;98.55;;;2.70;58.90;;;;;;5034557;28;20077;-74
2022/04/03 01:05:19;;;;;;;110.30;99.25;;;2.70;59.00;;;;;;5016791;28;20050;-74
2022/04/03 01:07:47;;;;;;;110.15;98.88;;;2.70;59.20;;;;;;5016746;28;20058;-74
2022/04/03 01:10:13;;;;;;;;;;;2.70;59.50;;;;;;5035713;28;20132;-75
2022/04/03 01:12:44;;;;;;;109.57;98.47;;;2.60;59.70;;;;;;5036528;28;20020;-74
2022/04/03 01:15:14;;;;;;;109.78;98.57;;;2.60;59.70;;;;;;5016199;28;20050;-75
2022/04/03 01:17:41;;;;;;;110.88;99.28;;;2.50;60.00;;;;;;5016450;28;20053;-75
2022/04/03 01:20:09;;;;;;;110.05;98.85;;;2.40;60.30;;;;;;5034106;28;20058;-74
2022/04/03 01:22:36;;;;;;;109.93;98.68;;;2.40;60.50;;;;;;5016404;28;20050;-74
2022/04/03 01:25:07;;;;;;;109.70;98.53;;;2.30;60.70;;;;;;5016492;28;20108;-74
2022/04/03 01:27:34;;;;;;;110.18;98.95;;;2.30;61.10;;;;;;5016314;28;20062;-75
2022/04/03 01:30:00;;;;;;;110.57;99.38;;;2.30;61.30;;;;;;5016524;28;20511;-74
2022/04/03 01:32:27;;;;;;;109.68;98.57;;;2.30;61.60;;;;;;5016651;28;20052;-74
2022/04/03 01:34:54;;;;;;;111.10;99.78;;;2.30;61.80;;;;;;5016256;28;20142;-74
2022/04/03 01:37:21;;;;;;;111.40;99.95;;;2.30;62.00;;;;;;5033457;28;20056;-74
2022/04/03 01:39:48;;;;;;;89.45;80.18;;;2.30;62.30;;;;;;5016565;28;20072;-75
2022/04/03 01:42:16;;;;;;;110.32;98.72;;;2.40;62.50;;;;;;4999924;28;20066;-75
2022/04/03 01:44:44;;;;;;;111.00;99.53;;;2.30;62.80;;;;;;5033759;28;20081;-75
2022/04/03 01:47:10;;;;;;;111.25;99.70;;;2.30;63.20;;;;;;5016076;28;20084;-75
2022/04/03 01:49:37;;;;;;;110.38;99.15;;;2.30;63.50;;;;;;5033731;28;20141;-75
2022/04/03 01:52:05;;;;;;;109.40;98.07;;;2.20;63.70;;;;;;5015231;28;20049;-74
2022/04/03 01:54:32;;;;;;;112.57;100.75;;;2.20;64.10;;;;;;5015093;28;20046;-74
2022/04/03 01:56:59;;;;;;;111.65;100.13;;;2.10;64.30;;;;;;5033052;28;20463;-74
2022/04/03 01:59:27;;;;;;;110.72;99.32;;;2.10;64.70;;;;;;5015809;28;20476;-74
2022/04/03 02:01:55;;;;;;;110.78;99.53;;;2.10;65.00;;;;;;5015879;28;20558;-74
2022/04/03 02:04:23;;;;;;;110.68;99.00;;;2.10;65.50;;;;;;4999562;28;20046;-74
2022/04/03 02:06:51;;;;;;;111.55;99.78;;;2.00;65.90;;;;;;5015910;28;20049;-74
2022/04/03 02:09:18;;;;;;;110.90;99.40;;;2.00;66.40;;;;;;5015636;28;20124;-74
2022/04/03 02:11:45;;;;;;;112.15;100.22;;;1.90;66.50;;;;;;5015834;28;20038;-74
2022/04/03 02:14:12;;;;;;;112.88;100.97;;;1.90;67.40;;;;;;5015866;28;20116;-74
2022/04/03 02:16:41;;;;;;;111.53;99.90;;;1.90;67.80;;;;;;5033502;28;20046;-74
2022/04/03 02:19:08;;;;;;;111.00;99.38;;;1.80;68.30;;;;;;5015878;28;20052;-74
2022/04/03 02:21:34;;;;;;;111.47;99.82;;;1.80;68.80;;;;;;5015532;28;20138;-74
2022/04/03 02:24:02;;;;;;;140.68;105.93;;;1.80;69.90;;;;;;5015363;28;20077;-74
2022/04/03 02:26:28;;;;;;;126.93;103.10;;;1.70;70.10;;;;;;5019625;28;20049;-74
2022/04/03 02:28:57;;;;;;;127.32;104.57;;;1.70;70.40;;;;;;5018689;28;20488;-74
2022/04/03 02:31:24;;;;;;;117.00;101.43;;;1.70;71.00;;;;;;5019290;28;20439;-74
2022/04/03 02:33:52;;;;;;;114.97;101.28;;;1.70;71.10;;;;;;5036498;28;20508;-74
2022/04/03 02:36:19;;;;;;;122.40;103.30;;;1.70;71.70;;;;;;5019021;28;20050;-74
2022/04/03 02:38:46;;;;;;;117.90;102.13;;;1.70;72.20;;;;;;5036471;28;20054;-74
2022/04/03 02:41:14;;;;;;;123.43;102.55;;;1.70;72.50;;;;;;5036782;28;20086;-75
2022/04/03 02:43:40;;;;;;;130.07;104.20;;;1.60;72.90;;;;;;5018679;28;20074;-74
2022/04/03 02:46:08;;;;;;;127.53;104.10;;;1.60;73.30;;;;;;5018952;28;20045;-74
2022/04/03 02:48:35;;;;;;;133.15;103.72;;;1.60;73.50;;;;;;5018432;28;20471;-74
2022/04/03 02:51:03;;;;;;;120.15;101.30;;;1.50;73.90;;;;;;5035928;28;20141;-73
2022/04/03 02:53:30;;;;;;;116.20;101.35;;;1.50;74.40;;;;;;5036158;28;20112;-74
2022/04/03 02:55:57;;;;;;;122.17;104.37;;;1.50;75.00;;;;;;5017991;28;20504;-75
2022/04/03 02:58:24;;;;;;;114.87;101.53;;;1.50;75.10;;;;;;5036046;28;20157;-74
2022/04/03 03:00:51;;;;;;;113.33;100.87;;;1.50;75.20;;;;;;5018458;28;20133;-74
2022/04/03 03:03:17;;;;;;;118.80;102.13;;;1.50;75.60;;;;;;5018908;28;20285;-75
2022/04/03 03:05:45;;;;;;;118.17;101.97;;;1.40;75.80;;;;;;5018444;28;20157;-74
2022/04/03 03:08:14;;;;;;;114.68;100.68;;;1.50;76.20;;;;;;5018552;28;20352;-74
2022/04/03 03:10:41;;;;;;;114.03;101.45;;;1.50;76.40;;;;;;5036082;28;20109;-74
2022/04/03 03:13:08;;;;;;;114.23;101.73;;;1.50;76.70;;;;;;5036220;28;20062;-74
2022/04/03 03:15:35;;;;;;;115.28;101.93;;;1.50;77.10;;;;;;5036359;28;20257;-75
2022/04/03 03:18:02;;;;;;;114.85;101.55;;;1.50;77.20;;;;;;5018162;28;20072;-74
2022/04/03 03:20:29;;;;;;;113.07;100.80;;;1.50;77.40;;;;;;5018463;28;20080;-74
2022/04/03 03:22:56;;;;;;;116.25;100.65;;;1.50;77.50;;;;;;5036101;28;20053;-74
2022/04/03 03:25:24;;;;;;;115.32;100.57;;;1.50;77.60;;;;;;5018375;28;20058;-74
2022/04/03 03:27:51;;;;;;;114.95;101.32;;;1.40;77.90;;;;;;5001281;28;20049;-74
2022/04/03 03:30:18;;;;;;;113.65;101.25;;;1.50;78.30;;;;;;5017499;28;20049;-74
2022/04/03 03:32:45;;;;;;;114.20;101.63;;;1.50;78.70;;;;;;5001756;28;20780;-74
2022/04/03 03:35:12;;;;;;;113.18;99.65;;;1.50;79.10;;;;;;5015649;28;20058;-74
2022/04/03 03:37:39;;;;;;;113.50;100.50;;;1.50;79.70;;;;;;5015886;28;20133;-74
2022/04/03 03:40:11;;;;;;;115.53;102.70;;;1.50;80.00;;;;;;4997908;28;20061;-73
2022/04/03 03:42:40;;;;;;;116.63;101.60;;;1.50;81.20;;;;;;5014700;28;20050;-74
2022/04/03 03:45:09;;;;;;;115.45;101.07;;;1.50;83.30;;;;;;5015551;28;20527;-74
2022/04/03 03:47:36;;;;;;;113.90;101.40;;;1.60;83.90;;;;;;5014264;28;20131;-74
2022/04/03 03:50:03;;;;;;;113.55;100.43;;;1.60;84.20;;;;;;5014427;28;20574;-74
2022/04/03 03:52:31;;;;;;;114.75;100.97;;;1.60;85.10;;;;;;5014590;28;20098;-74
2022/04/03 03:54:58;;;;;;;;;;;1.60;85.50;;;;;;5014939;28;20056;-74
2022/04/03 03:57:25;;;;;;;113.38;98.95;;;1.60;85.50;;;;;;5015843;28;19932;-74
2022/04/03 03:59:53;;;;;;;112.00;99.80;;;1.70;85.40;;;;;;5014291;28;20046;-74
2022/04/03 04:02:20;;;;;;;114.63;101.05;;;1.70;85.70;;;;;;5015763;28;20058;-74
2022/04/03 04:04:47;;;;;;;111.72;99.43;;;1.70;85.70;;;;;;5014439;28;20057;-74
2022/04/03 04:07:14;;;;;;;112.68;100.38;;;1.70;86.60;;;;;;4997982;28;20137;-74
2022/04/03 04:09:41;;;;;;;113.20;100.82;;;1.70;86.40;;;;;;5014347;28;20534;-75
2022/04/03 04:12:10;;;;;;;112.22;99.95;;;1.70;87.00;;;;;;5015112;28;20137;-74
2022/04/03 04:14:39;;;;;;;115.18;98.82;;;1.70;86.50;;;;;;5014075;28;20047;-74
2022/04/03 04:17:09;;;;;;;115.75;102.68;;;1.80;86.10;;;;;;5014857;28;20050;-74
2022/04/03 04:19:36;;;;;;;112.55;99.88;;;1.80;86.80;;;;;;5015121;28;20046;-74
2022/04/03 04:22:04;;;;;;;111.30;99.10;;;1.80;86.90;;;;;;4997705;28;20475;-74
2022/04/03 04:24:31;;;;;;;;;;;1.80;87.10;;;;;;5015702;28;20124;-74
2022/04/03 04:26:58;;;;;;;113.47;100.18;;;1.90;86.90;;;;;;4997824;28;19931;-74
2022/04/03 04:29:25;;;;;;;113.60;100.88;;;1.90;86.80;;;;;;5015079;28;20054;-74
2022/04/03 04:31:52;;;;;;;114.38;101.80;;;1.90;88.00;;;;;;5014854;28;20054;-74
2022/04/03 04:34:20;;;;;;;113.45;99.32;;;1.90;88.10;;;;;;5015143;28;20054;-74
2022/04/03 04:36:47;;;;;;;115.60;100.65;;;2.00;88.20;;;;;;5015068;28;20054;-74
2022/04/03 04:39:14;;;;;;;111.97;99.45;;;2.00;88.30;;;;;;5014462;28;20060;-74
2022/04/03 04:41:41;;;;;;;111.88;99.57;;;2.00;88.30;;;;;;5013674;28;20138;-74
2022/04/03 04:44:08;;;;;;;112.75;99.68;;;2.10;88.40;;;;;;5013745;28;20523;-74
2022/04/03 04:46:35;;;;;;;112.53;100.10;;;2.10;88.10;;;;;;4996538;28;20077;-74
2022/04/03 04:49:02;;;;;;;114.00;100.85;;;2.10;88.00;;;;;;5014121;28;20129;-75
2022/04/03 04:51:30;;;;;;;113.35;101.07;;;2.10;87.80;;;;;;5014407;28;21106;-74
2022/04/03 04:53:57;;;;;;;111.88;99.60;;;2.10;87.90;;;;;;5014726;28;20058;-74
2022/04/03 04:56:24;;;;;;;113.22;100.88;;;2.10;87.80;;;;;;4996942;28;20134;-74
2022/04/03 04:58:51;;;;;;;111.28;99.20;;;2.10;87.90;;;;;;5014376;28;20512;-74
2022/04/03 05:01:29;;;;;;;88.15;77.90;;;2.10;88.00;;;;;;5015062;28;20064;-75
2022/04/03 05:03:56;;;;;;;111.93;99.82;;;2.10;87.90;;;;;;4980273;28;20046;-74
2022/04/03 05:06:26;;;;;;;112.35;100.15;;;2.10;87.80;;;;;;5012892;28;20050;-74
2022/04/03 05:08:55;;;;;;;112.28;99.97;;;2.10;87.80;;;;;;4980044;28;20057;-74
2022/04/03 05:11:23;;;;;;;114.70;102.15;;;2.10;88.00;;;;;;5014462;28;20532;-75
2022/04/03 05:13:50;;;;;;;113.03;100.72;;;2.10;87.90;;;;;;4996584;28;20058;-75
2022/04/03 05:16:18;;;;;;;112.43;100.38;;;2.10;88.00;;;;;;5014322;28;20058;-74
2022/04/03 05:18:45;;;;;;;111.20;99.30;;;2.10;87.90;;;;;;5012209;28;20050;-74
2022/04/03 05:21:12;;;;;;;113.00;100.68;;;2.10;87.70;;;;;;5012921;28;20125;-74
2022/04/03 05:23:39;;;;;;;112.93;100.50;;;2.10;87.60;;;;;;5012657;28;20074;-73
2022/04/03 05:26:07;;;;;;;;;;;2.10;87.40;;;;;;4996478;28;20042;-74
2022/04/03 05:28:35;;;;;;;112.72;99.53;;;2.00;86.80;;;;;;4995993;28;19925;-74
2022/04/03 05:31:02;;;;;;;111.40;99.25;;;2.00;86.90;;;;;;5012542;28;20133;-74
2022/04/03 05:33:30;;;;;;;112.63;100.38;;;2.00;87.20;;;;;;4979406;28;20152;-74
2022/04/03 05:35:56;;;;;;;109.78;97.88;;;2.00;87.30;;;;;;5014016;28;20054;-75
2022/04/03 05:38:23;;;;;;;114.38;101.97;;;2.00;87.70;;;;;;5013159;28;20061;-74
2022/04/03 05:40:51;;;;;;;112.20;100.10;;;1.90;87.70;;;;;;5012650;28;20078;-74
2022/04/03 05:43:19;;;;;;;;;;;1.90;87.70;;;;;;5014247;28;20140;-74
2022/04/03 05:45:46;;;;;;;111.35;99.20;;;1.90;87.30;;;;;;4996440;28;19926;-74
2022/04/03 05:48:13;;;;;;;110.53;98.75;;;2.00;87.40;;;;;;4996176;28;20082;-74
2022/04/03 05:50:40;;;;;;;112.45;100.07;;;2.00;87.70;;;;;;5012664;28;20157;-74
2022/04/03 05:53:07;;;;;;;111.20;99.25;;;2.00;87.80;;;;;;5004744;28;20069;-74
2022/04/03 05:55:35;;;;;;;112.68;100.68;;;2.00;88.00;;;;;;5032107;28;20133;-74
2022/04/03 05:58:01;;;;;;;109.53;98.03;;;2.00;88.00;;;;;;4997494;28;20042;-74
2022/04/03 06:00:31;;;;;;;109.38;97.55;;;2.00;88.10;;;;;;5014732;28;20054;-74
2022/04/03 06:02:59;;;;;;;112.68;100.88;;;2.10;88.40;;;;;;5012301;28;20054;-74
2022/04/03 06:05:29;;;;;;;109.22;97.53;;;2.10;88.60;;;;;;5014339;28;20105;-73
2022/04/03 06:07:57;;;;;;;110.57;99.05;;;2.10;88.80;;;;;;5028833;28;20054;-74
2022/04/03 06:10:26;;;;;;;114.20;102.13;;;2.10;89.00;;;;;;5014732;28;20042;-75
2022/04/03 06:12:58;;;;;;;114.45;102.13;;;2.10;89.10;;;;;;5006598;28;20056;-74
2022/04/03 06:15:26;;;;;;;108.72;97.25;;;2.10;89.40;;;;;;4997926;28;20045;-74
2022/04/03 06:17:55;;;;;;;109.18;97.57;;;2.10;90.10;;;;;;4998548;28;20054;-74
2022/04/03 06:20:22;;;;;;;111.93;100.47;;;2.10;90.00;;;;;;5033413;28;20054;-74
2022/04/03 06:22:49;;;;;;;109.70;98.05;;;2.10;90.10;;;;;;5031260;28;20113;-75
2022/04/03 06:25:16;;;;;;;110.35;98.60;;;2.10;90.70;;;;;;5013799;28;20081;-75
2022/04/03 06:27:43;;;;;;;109.53;98.03;;;2.10;90.90;;;;;;5012162;28;20053;-75
2022/04/03 06:30:11;;;;;;;111.70;100.00;;;2.10;91.10;;;;;;5014901;28;20092;-74
2022/04/03 06:32:38;;;;;;;;;;;2.10;91.30;;;;;;5032482;28;20053;-74
2022/04/03 06:35:08;;;;;;;110.85;99.00;;;2.20;91.30;;;;;;5014722;28;20401;-74
2022/04/03 06:37:36;;;;;;;110.35;98.65;;;2.10;91.00;;;;;;5032663;28;20046;-76
2022/04/03 06:40:04;;;;;;;113.95;101.85;;;2.10;91.00;;;;;;5014275;28;20995;-75
2022/04/03 06:42:31;;;;;;;110.65;98.68;;;2.20;91.10;;;;;;5014164;28;20605;-75
2022/04/03 06:44:59;;;;;;;109.78;98.22;;;2.20;91.20;;;;;;5015290;28;20061;-75
2022/04/03 06:47:26;;;;;;;108.72;97.43;;;2.20;91.20;;;;;;5015301;28;20435;-72
2022/04/03 06:49:54;;;;;;;108.95;97.32;;;2.20;91.40;;;;;;5015297;28;20503;-77
2022/04/03 06:52:22;;;;;;;107.90;96.70;;;2.30;91.40;;;;;;5015315;28;20137;-76
2022/04/03 06:54:49;;;;;;;108.53;97.43;;;2.30;91.40;;;;;;5032901;28;20471;-73
2022/04/03 06:57:18;;;;;;;108.82;97.63;;;2.30;91.60;;;;;;5015016;28;20124;-73
2022/04/03 06:59:46;;;;;;;108.53;97.05;;;2.30;91.80;;;;;;5032955;28;20080;-79
2022/04/03 07:02:12;;;;;;;110.45;99.03;;;2.40;91.80;;;;;;5013517;28;20054;-78
2022/04/03 07:04:41;;;;;;;110.33;98.87;;;2.40;91.90;;;;;;5011890;28;20804;-77
2022/04/03 07:07:08;;;;;;;110.90;98.95;;;2.40;92.10;;;;;;5011869;28;20428;-77
2022/04/03 07:09:40;;;;;;;108.70;97.40;;;2.50;92.20;;;;;;5014111;28;20060;-77
2022/04/03 07:12:08;;;;;;;108.38;96.97;;;2.60;92.20;;;;;;5017780;28;20050;-77
2022/04/03 07:14:35;;;;;;;108.50;97.00;;;2.60;92.30;;;;;;5017907;28;20089;-77
2022/04/03 07:17:02;;;;;;;111.10;99.47;;;2.70;92.50;;;;;;5017875;28;20622;-77
2022/04/03 07:19:29;;;;;;;108.55;97.22;;;2.80;92.80;;;;;;5018609;28;20054;-77
2022/04/03 07:21:57;;;;;;;108.97;97.65;;;2.90;92.70;;;;;;5000061;28;20050;-76
2022/04/03 07:24:25;;;;;;;108.18;96.95;;;2.90;92.40;;;;;;5017574;28;20141;-77
2022/04/03 07:26:54;;;;;;;108.32;96.93;;;3.00;92.50;;;;;;5015330;28;20057;-81
2022/04/03 07:29:21;;;;;;;109.05;97.45;;;3.00;92.50;;;;;;5015972;28;20491;-79
2022/04/03 07:31:48;;;;;;;108.53;97.25;;;3.20;92.80;;;;;;5035627;28;20065;-79
2022/04/03 07:34:15;;;;;;;108.97;97.20;;;3.20;92.80;;;;;;5017959;28;20052;-79
2022/04/03 07:36:42;;;;;;;109.88;98.00;;;3.30;93.10;;;;;;5017204;28;20258;-80
2022/04/03 07:39:10;;;;;;;110.68;99.18;;;3.50;93.00;;;;;;5017694;28;20401;-80
2022/04/03 07:41:37;;;;;;;108.75;97.28;;;3.50;93.00;;;;;;5017756;28;20056;-80
2022/04/03 07:44:06;;;;;;;107.65;96.45;;;3.60;93.10;;;;;;5016124;28;20137;-81
2022/04/03 07:46:33;;;;;;;109.75;98.35;;;3.70;93.20;;;;;;5001299;28;20080;-80
2022/04/03 07:49:00;;;;;;;108.22;97.07;;;3.80;93.10;;;;;;5001233;28;21789;-81
2022/04/03 07:51:27;;;;;;;109.40;97.50;;;3.80;93.00;;;;;;5017507;28;20054;-81
2022/04/03 07:53:54;;;;;;;;;;;3.90;92.90;;;;;;5018016;28;20050;-79
2022/04/03 07:56:21;;;;;;;107.88;96.50;;;4.00;93.30;;;;;;5029271;28;19926;-79
2022/04/03 07:58:48;;;;;;;108.25;96.85;;;4.10;93.10;;;;;;5007675;28;20077;-79
2022/04/03 08:01:17;;;;;;;108.32;96.93;;;4.30;92.90;;;;;;5010242;28;20057;-79
2022/04/03 08:03:44;;;;;;;107.00;95.82;;;4.30;92.60;;;;;;5033505;28;20132;-79
2022/04/03 08:06:11;;;;;;;106.95;95.93;;;4.30;92.20;;;;;;5013521;28;20038;-80
2022/04/03 08:08:39;;;;;;;107.55;96.15;;;4.40;92.10;;;;;;4998241;28;20092;-79
2022/04/03 08:11:05;;;;;;;;;;;4.50;92.20;;;;;;5009647;28;20081;-77
2022/04/03 08:13:32;;;;;;;109.60;98.10;;;4.50;91.80;;;;;;5005074;28;19932;-78
2022/04/03 08:16:01;;;;;;;108.88;97.50;;;4.60;92.20;;;;;;5012298;28;20057;-78
2022/04/03 08:18:29;;;;;;;109.93;98.63;;;4.70;92.60;;;;;;5012385;28;20043;-78
2022/04/03 08:20:56;;;;;;;109.30;97.90;;;4.70;92.40;;;;;;4999818;28;20049;-78
2022/04/03 08:23:23;;;;;;;108.60;97.32;;;4.80;92.30;;;;;;5025687;28;20050;-78
2022/04/03 08:25:50;;;;;;;108.60;97.60;;;4.90;92.30;;;;;;5008004;28;20146;-78
2022/04/03 08:28:17;;;;;;;107.93;96.88;;;4.90;92.20;;;;;;5024964;28;20050;-79
2022/04/03 08:30:44;;;;;;;;;;;5.00;92.20;;;;;;5016959;28;20054;-78
2022/04/03 08:33:11;;;;;;;109.15;97.95;;;5.10;91.80;;;;;;5084994;23;19924;-78
2022/04/03 08:35:40;;;;;;;110.88;99.32;;;5.10;91.90;;;;;;5063613;28;20075;-79
2022/04/03 08:38:08;;;;;;;109.38;98.28;;;5.20;91.90;;;;;;5060085;28;20346;-78
2022/04/03 08:40:35;;;;;;;110.00;98.72;;;5.30;92.00;;;;;;5061696;28;20052;-79
2022/04/03 08:43:04;;;;;;;108.75;97.50;;;5.30;91.70;;;;;;5074254;28;20048;-79
2022/04/03 08:45:31;;;;;;;108.43;97.55;;;5.40;91.70;;;;;;5070328;28;20060;-78
2022/04/03 08:48:00;;;;;;;111.07;99.72;;;5.40;91.60;;;;;;5076913;28;20051;-79
2022/04/03 08:50:30;;;;;;;109.75;98.72;;;5.50;91.90;;;;;;5076765;28;20045;-79
2022/04/03 08:53:02;;;;;;;109.47;98.57;;;5.50;91.60;;;;;;5077598;28;20060;-78
2022/04/03 08:55:30;;;;;;;110.18;99.15;;;5.50;91.70;;;;;;5076880;28;20567;-79
2022/04/03 08:57:58;;;;;;;108.85;97.95;;;5.60;91.60;;;;;;5077220;28;20421;-79
2022/04/03 09:00:25;;;;;;;109.03;98.03;;;5.60;91.80;;;;;;5077043;28;20056;-78
2022/04/03 09:02:52;;;;;;;;;;;5.70;91.70;;;;;;5095903;28;20058;-78
2022/04/03 09:05:20;;;;;;;110.90;99.80;;;5.80;91.60;;;;;;5077173;28;20397;-79
2022/04/03 09:08:01;;;;;;;111.93;100.38;;;5.80;91.70;;;;;;5091502;28;20156;-78
2022/04/03 09:10:29;;;;;;;108.63;97.75;;;5.80;91.70;;;;;;5067619;28;20055;-80
2022/04/03 09:12:56;;;;;;;109.97;98.97;;;5.90;91.50;;;;;;5089001;28;20052;-78
2022/04/03 09:15:25;;;;;;;108.57;97.63;;;6.00;91.30;;;;;;5084401;28;20055;-78
2022/04/03 09:17:53;;;;;;;108.85;98.20;;;6.00;91.30;;;;;;5071755;28;20048;-79
2022/04/03 09:20:22;;;;;;;109.68;98.90;;;6.10;91.20;;;;;;5065240;28;20083;-79
2022/04/03 09:22:51;;;;;;;110.60;99.50;;;6.20;91.00;;;;;;5087171;28;20063;-79
2022/04/03 09:25:25;;;;;;;109.18;98.47;;;6.30;90.50;;;;;;5069561;28;20131;-78
2022/04/03 09:27:54;;;;;;;109.65;98.85;;;6.40;90.30;;;;;;5071301;28;20083;-78
2022/04/03 09:30:30;;;;;;;109.13;98.25;;;6.40;90.10;;;;;;5078565;28;20044;-79
2022/04/03 09:32:58;;;;;;;110.10;99.30;;;6.50;89.30;;;;;;5057731;28;20544;-78
2022/04/03 09:35:27;;;;;;;110.07;99.22;;;6.60;89.30;;;;;;5066947;28;20525;-80
2022/04/03 09:38:12;;;;;;;110.50;99.35;;;6.60;87.60;;;;;;5063841;28;20048;-80
2022/04/03 09:40:42;;;;;;;108.10;97.30;;;6.60;87.10;;;;;;5062532;28;20053;-80
2022/04/03 09:43:21;;;;;;;109.70;98.80;;;6.60;87.10;;;;;;5052362;28;20052;-80
2022/04/03 09:45:50;;;;;;;109.00;98.15;;;6.70;87.40;;;;;;5072402;28;20053;-79
2022/04/03 09:48:25;;;;;;;109.72;99.07;;;6.70;87.30;;;;;;5064418;28;20052;-79
2022/04/03 09:50:59;;;;;;;111.82;101.00;;;6.80;86.00;;;;;;5056273;28;20057;-78
2022/04/03 09:53:27;;;;;;;110.05;99.43;;;6.80;84.60;;;;;;5062680;28;21497;-79
2022/04/03 09:55:55;;;;;;;110.15;99.53;;;6.90;83.60;;;;;;5061675;28;20092;-79
2022/04/03 09:58:23;;;;;;;111.15;100.32;;;6.90;83.60;;;;;;5079698;28;20072;-79
2022/04/03 10:00:50;;;;;;;111.82;101.03;;;6.90;83.80;;;;;;5078465;28;20052;-80
2022/04/03 10:03:17;;;;;;;111.55;100.65;;;7.00;83.40;;;;;;5084113;28;20050;-79
2022/04/03 10:05:45;;;;;;;;;;;7.00;83.10;;;;;;5073030;28;20068;-78
2022/04/03 10:08:12;;;;;;;110.25;99.35;;;7.00;83.20;;;;;;5072774;28;20488;-78
2022/04/03 10:10:40;;;;;;;110.50;99.95;;;7.00;83.30;;;;;;5076809;28;20082;-78
2022/04/03 10:13:10;;;;;;;110.80;99.55;;;7.00;83.50;;;;;;5078456;28;20051;-78
2022/04/03 10:15:37;;;;;;;109.63;98.85;;;7.00;84.20;;;;;;5059667;28;20049;-78
2022/04/03 10:18:05;;;;;;;109.55;98.85;;;7.00;84.60;;;;;;5079909;28;20581;-79
2022/04/03 10:20:35;;;;;;;110.03;99.43;;;7.00;85.60;;;;;;5061989;28;20053;-79
2022/04/03 10:23:06;;;;;;;110.20;99.55;;;7.00;85.90;;;;;;5058457;28;20445;-79
2022/04/03 10:25:39;;;;;;;110.57;99.97;;;7.10;85.80;;;;;;5064101;28;20550;-78
2022/04/03 10:28:08;;;;;;;112.90;102.05;;;7.10;85.80;;;;;;5059552;28;20124;-81
2022/04/03 10:30:36;;;;;;;110.78;100.18;;;7.10;85.70;;;;;;5067031;28;20170;-80
2022/04/03 10:33:03;;;;;;;111.65;101.05;;;7.20;85.80;;;;;;5050731;28;20072;-81
2022/04/03 10:35:30;;;;;;;112.32;101.47;;;7.20;85.60;;;;;;5061632;28;20083;-80
2022/04/03 10:38:01;;;;;;;;;;;7.20;85.50;;;;;;5060746;28;20132;-80
2022/04/03 10:40:31;;;;;;;111.70;101.05;;;7.20;85.20;;;;;;5052160;28;19931;-80
2022/04/03 10:43:02;;;;;;;111.22;100.45;;;7.20;85.50;;;;;;5061533;28;20070;-81
2022/04/03 10:45:32;;;;;;;109.20;98.68;;;7.30;85.30;;;;;;5057322;28;20061;-81
2022/04/03 10:48:31;;;;;;;107.80;97.53;;;7.30;84.80;;;;;;5063445;28;20059;-79
2022/04/03 10:51:06;;;;;;;108.68;97.93;;;7.30;84.00;;;;;;5069393;28;20541;-81
2022/04/03 10:53:35;;;;;;;108.80;97.93;;;7.40;84.30;;;;;;5055305;28;20262;-81
2022/04/03 10:56:07;;;;;;;116.40;105.45;;;7.40;84.70;;;;;;5059938;28;20894;-80
2022/04/03 10:58:43;;;;;;;119.05;108.00;;;7.50;85.10;;;;;;5054348;28;20239;-80
2022/04/03 11:01:23;;;;;;;115.85;105.15;;;7.50;85.40;;;;;;5052614;28;20080;-80
2022/04/03 11:03:57;;;;;;;116.82;105.88;;;7.60;84.10;;;;;;5052446;28;20064;-79
2022/04/03 11:06:33;;;;;;;115.80;104.90;;;7.70;84.20;;;;;;5058002;28;20520;-79
2022/04/03 11:09:15;;;;;;;115.65;104.78;;;7.70;83.50;;;;;;5057654;28;20790;-79
2022/04/03 11:11:45;;;;;;;107.35;96.95;;;7.80;84.10;;;;;;5067573;28;20049;-78
2022/04/03 11:14:13;;;;;;;108.15;97.93;;;7.90;84.60;;;;;;5061142;28;20053;-80
2022/04/03 11:16:57;;;;;;;108.10;97.82;;;8.00;84.40;;;;;;5070721;28;20045;-80
2022/04/03 11:19:40;;;;;;;108.80;98.50;;;8.00;83.30;;;;;;5063576;28;20927;-80
2022/04/03 11:22:09;;;;;;;107.28;97.07;;;8.10;81.80;;;;;;5060986;28;20569;-80
2022/04/03 11:24:38;;;;;;;108.03;97.90;;;8.20;81.80;;;;;;5073449;28;20622;-77
2022/04/03 11:27:06;;;;;;;111.50;101.07;;;8.20;80.40;;;;;;5087410;28;20054;-79
2022/04/03 11:29:33;;;;;;;108.15;97.95;;;8.30;79.80;;;;;;5077838;28;20046;-79
2022/04/03 11:32:04;;;;;;;107.80;97.70;;;8.40;79.30;;;;;;5059607;28;20059;-79
2022/04/03 11:34:32;;;;;;;109.82;99.47;;;8.40;78.80;;;;;;5077620;28;20041;-78
2022/04/03 11:37:00;;;;;;;114.75;103.97;;;8.50;78.90;;;;;;5048200;28;20144;-78
2022/04/03 11:39:32;;;;;;;111.25;100.88;;;8.50;78.80;;;;;;5067041;28;20525;-79
2022/04/03 11:42:06;;;;;;;108.68;98.47;;;8.60;77.40;;;;;;5076424;28;20068;-78
2022/04/03 11:44:35;;;;;;;108.95;98.63;;;8.60;77.10;;;;;;5086338;28;20055;-79
2022/04/03 11:47:05;;;;;;;111.47;100.88;;;8.60;77.10;;;;;;5069306;28;20048;-79
2022/04/03 11:49:33;;;;;;;117.53;106.75;;;8.60;76.90;;;;;;5072346;28;20533;-78
2022/04/03 11:52:06;;;;;;;117.68;106.70;;;8.60;76.90;;;;;;5045883;28;20053;-79
2022/04/03 11:54:33;;;;;;;116.10;105.10;;;8.70;76.80;;;;;;5045815;28;20435;-79
2022/04/03 11:57:01;;;;;;;117.60;106.75;;;8.70;76.00;;;;;;5063197;28;20053;-79
2022/04/03 11:59:28;;;;;;;118.50;107.55;;;8.70;75.10;;;;;;5045495;28;20052;-79
2022/04/03 12:01:56;;;;;;;111.75;101.18;;;8.70;74.70;;;;;;5065990;28;20142;-79
2022/04/03 12:04:24;;;;;;;109.88;99.65;;;8.70;75.00;;;;;;5067491;28;20565;-79
2022/04/03 12:06:58;;;;;;;110.78;100.47;;;8.60;75.40;;;;;;5067290;28;20580;-78
2022/04/03 12:09:27;;;;;;;120.32;109.22;;;8.70;75.70;;;;;;5069468;28;20057;-78
2022/04/03 12:11:56;;;;;;;116.07;105.40;;;8.70;76.00;;;;;;5063638;28;20055;-78
2022/04/03 12:14:25;;;;;;;116.15;105.50;;;8.70;76.10;;;;;;5063162;28;20052;-79
2022/04/03 12:17:00;;;;;;;118.05;107.20;;;8.70;76.10;;;;;;5045683;28;20063;-79
2022/04/03 12:19:30;;;;;;;109.53;99.43;;;8.70;76.10;;;;;;5048886;28;20052;-79
2022/04/03 12:22:00;;;;;;;108.57;98.30;;;8.70;76.10;;;;;;5074542;28;20096;-78
2022/04/03 12:24:28;;;;;;;106.57;96.43;;;8.70;76.20;;;;;;5056871;28;20100;-79
2022/04/03 12:26:58;;;;;;;109.93;99.72;;;8.70;76.20;;;;;;5059291;28;20041;-79
2022/04/03 12:29:28;;;;;;;108.03;97.63;;;8.70;75.90;;;;;;5065695;28;20053;-80
2022/04/03 12:32:00;;;;;;;107.03;96.97;;;8.70;75.50;;;;;;5085460;28;20055;-80
2022/04/03 12:34:29;;;;;;;107.63;97.50;;;8.70;75.50;;;;;;5064060;28;20582;-79